Time;durP1;ratioP1;P1;durP2;ratioP2;P2;SDS_P1;SDS_P2;PMS_P1;PMS_P2;Temp;Humidity;BMP_temperature;BMP_pressure;BME280_temperature;BME280_humidity;BME280_pressure;Samples;Min_cycle;Max_cycle;Signal;HPM_P1;HPM_P2
2022/02/15 00:00:31;;;;;;;4.97;2.20;;;;;;;5.79;79.22;98531.78;5065124;28;20027;-72
2022/02/15 00:02:56;;;;;;;6.13;1.83;;;;;;;5.78;79.55;98538.63;5064647;28;20025;-73
2022/02/15 00:05:22;;;;;;;8.57;2.03;;;;;;;5.77;79.76;98536.09;5064676;28;20046;-75
2022/02/15 00:07:47;;;;;;;11.45;1.90;;;;;;;5.77;80.37;98533.53;5063785;28;20031;-73
2022/02/15 00:10:12;;;;;;;10.13;2.08;;;;;;;5.69;80.40;98541.41;5064648;28;20106;-72
2022/02/15 00:12:38;;;;;;;9.52;2.00;;;;;;;5.69;80.91;98528.53;5064623;28;20374;-76
2022/02/15 00:15:07;;;;;;;7.63;1.40;;;;;;;5.67;80.66;98536.28;5064552;28;20082;-72
2022/02/15 00:17:34;;;;;;;8.23;2.45;;;;;;;5.63;80.20;98515.75;5064296;28;20025;-73
2022/02/15 00:19:59;;;;;;;7.78;2.78;;;;;;;5.67;79.74;98527.72;5064476;28;20013;-73
2022/02/15 00:22:24;;;;;;;7.07;1.63;;;;;;;5.62;79.52;98530.38;5064446;28;20040;-72
2022/02/15 00:24:50;;;;;;;8.23;1.90;;;;;;;5.73;79.20;98521.59;5046216;28;20210;-73
2022/02/15 00:27:15;;;;;;;7.95;2.05;;;;;;;5.67;80.18;98515.69;5046466;28;20503;-73
2022/02/15 00:29:40;;;;;;;5.22;1.45;;;;;;;5.69;80.37;98523.38;5064336;28;20025;-72
2022/02/15 00:32:06;;;;;;;9.63;2.15;;;;;;;5.70;80.00;98518.19;5064107;28;20111;-72
2022/02/15 00:34:33;;;;;;;10.93;1.65;;;;;;;5.89;79.26;98506.69;5064170;28;20027;-73
2022/02/15 00:36:59;;;;;;;10.68;2.30;;;;;;;5.90;78.61;98516.13;5064075;28;20029;-72
2022/02/15 00:39:25;;;;;;;5.28;1.30;;;;;;;5.81;79.79;98510.25;5064078;28;20028;-73
2022/02/15 00:41:50;;;;;;;7.55;1.73;;;;;;;5.85;79.91;98523.09;5064097;28;20089;-75
2022/02/15 00:44:16;;;;;;;7.00;1.83;;;;;;;5.79;79.47;98513.75;5064020;28;20032;-73
2022/02/15 00:46:41;;;;;;;7.80;1.80;;;;;;;5.80;79.26;98500.84;5045968;28;20098;-72
2022/02/15 00:49:06;;;;;;;7.50;2.00;;;;;;;5.83;78.83;98508.50;5063628;28;20417;-74
2022/02/15 00:51:32;;;;;;;8.88;1.58;;;;;;;5.87;78.39;98496.44;5064010;28;20292;-72
2022/02/15 00:53:57;;;;;;;4.82;1.67;;;;;;;5.87;78.76;98496.44;5063865;28;20063;-72
2022/02/15 00:56:22;;;;;;;7.85;1.80;;;;;;;5.88;79.14;98499.88;5045977;28;20047;-75
2022/02/15 00:58:48;;;;;;;8.93;2.22;;;;;;;5.90;79.01;98496.38;5063785;28;20025;-73
2022/02/15 01:01:13;;;;;;;6.13;2.00;;;;;;;5.93;78.83;98498.88;5063725;28;20028;-73
2022/02/15 01:03:38;;;;;;;8.15;2.00;;;;;;;5.98;79.00;98498.78;5063227;28;20028;-72
2022/02/15 01:06:03;;;;;;;10.75;2.20;;;;;;;5.91;79.46;98477.44;5045793;28;20047;-74
2022/02/15 01:08:29;;;;;;;8.50;1.90;;;;;;;5.99;79.24;98490.16;5045694;28;20021;-73
2022/02/15 01:10:55;;;;;;;8.75;1.83;;;;;;;5.97;79.28;98491.09;5063311;28;20487;-73
2022/02/15 01:13:20;;;;;;;7.47;1.77;;;;;;;5.97;79.49;98493.66;5063644;28;20025;-74
2022/02/15 01:15:45;;;;;;;17.40;2.25;;;;;;;5.91;79.19;98482.59;5063363;28;20032;-72
2022/02/15 01:18:11;;;;;;;13.98;2.80;;;;;;;5.89;79.80;98486.94;5045191;28;20457;-75
2022/02/15 01:20:36;;;;;;;7.70;1.73;;;;;;;6.03;79.26;98475.50;5063418;28;20021;-74
2022/02/15 01:23:02;;;;;;;5.90;1.70;;;;;;;5.98;79.53;98455.00;5063691;28;20100;-75
2022/02/15 01:25:27;;;;;;;8.68;2.10;;;;;;;5.92;79.32;98455.97;5063410;28;20041;-73
2022/02/15 01:27:54;;;;;;;8.90;1.83;;;;;;;5.98;79.09;98456.72;5045403;28;20024;-77
2022/02/15 01:30:20;;;;;;;7.53;1.98;;;;;;;5.90;79.33;98451.72;5063237;28;20385;-74
2022/02/15 01:32:47;;;;;;;8.07;2.15;;;;;;;5.92;79.43;98474.00;5063074;28;20029;-74
2022/02/15 01:35:13;;;;;;;6.95;2.17;;;;;;;5.88;79.68;98466.38;5045110;28;20420;-74
2022/02/15 01:37:38;;;;;;;13.43;2.60;;;;;;;5.83;79.91;98469.06;5063328;28;20021;-74
2022/02/15 01:40:04;;;;;;;4.18;1.70;;;;;;;5.89;79.47;98468.91;5063141;28;20047;-77
2022/02/15 01:42:29;;;;;;;10.13;1.90;;;;;;;5.78;79.51;98458.00;5063238;28;20123;-73
2022/02/15 01:44:55;;;;;;;16.17;2.92;;;;;;;5.79;79.88;98462.25;5063001;28;20056;-73
2022/02/15 01:47:26;;;;;;;5.32;1.77;;;;;;;5.79;80.09;98452.81;5045022;28;20021;-74
2022/02/15 01:49:53;;;;;;;9.95;3.35;;;;;;;5.76;80.20;98452.00;5063101;28;20029;-73
2022/02/15 01:52:20;;;;;;;15.32;2.65;;;;;;;5.78;79.92;98445.94;5063180;28;20055;-73
2022/02/15 01:54:50;;;;;;;7.95;2.38;;;;;;;5.77;80.64;98444.25;5062963;28;20033;-75
2022/02/15 01:57:16;;;;;;;14.90;2.78;;;;;;;5.74;80.34;98453.75;5062837;28;20029;-74
2022/02/15 01:59:43;;;;;;;10.57;4.45;;;;;;;5.65;80.37;98445.38;5045249;28;20021;-74
2022/02/15 02:02:08;;;;;;;15.00;3.15;;;;;;;5.61;80.48;98443.72;5062915;28;20033;-71
2022/02/15 02:07:18;;;;;;;11.95;3.55;;;;;;;5.53;81.23;98455.88;5063023;28;20040;-74
2022/02/15 02:09:44;;;;;;;14.55;3.42;;;;;;;5.57;80.86;98452.38;5063105;28;20021;-73
2022/02/15 02:12:10;;;;;;;8.88;3.08;;;;;;;5.53;80.83;98436.16;5062975;28;20023;-74
2022/02/15 02:14:35;;;;;;;11.55;3.40;;;;;;;5.56;81.16;98433.50;5062728;28;20394;-73
2022/02/15 02:17:01;;;;;;;13.73;3.10;;;;;;;5.45;80.83;98438.88;5062814;28;20035;-72
2022/02/15 02:19:26;;;;;;;9.25;4.05;;;;;;;5.60;80.14;98447.19;5062760;28;20023;-71
2022/02/15 02:21:53;;;;;;;10.25;3.58;;;;;;;5.42;80.77;98431.22;5062926;28;20025;-73
2022/02/15 02:24:19;;;;;;;13.07;3.92;;;;;;;5.42;81.04;98438.94;5062397;28;20116;-74
2022/02/15 02:26:44;;;;;;;15.25;3.75;;;;;;;5.64;80.11;98433.34;5062748;28;20028;-74
2022/02/15 02:29:10;;;;;;;11.32;3.67;;;;;;;5.50;80.48;98441.34;5062687;28;20021;-74
2022/02/15 02:31:35;;;;;;;8.70;3.95;;;;;;;5.48;80.84;98437.13;5066481;28;20025;-74
2022/02/15 02:34:00;;;;;;;14.35;4.32;;;;;;;5.48;81.29;98429.41;5066168;28;20420;-73
2022/02/15 02:36:26;;;;;;;11.18;3.90;;;;;;;5.50;81.04;98431.06;5066472;28;20021;-73
2022/02/15 02:38:51;;;;;;;8.82;4.05;;;;;;;5.44;81.43;98418.31;5048540;28;20023;-73
2022/02/15 02:41:16;;;;;;;13.20;3.65;;;;;;;5.55;80.82;98420.66;5066126;28;20107;-74
2022/02/15 02:43:42;;;;;;;13.40;3.72;;;;;;;5.47;80.99;98410.53;5065997;28;20044;-73
2022/02/15 02:46:07;;;;;;;9.82;4.95;;;;;;;5.41;81.31;98423.53;5066438;28;20033;-73
2022/02/15 02:48:32;;;;;;;13.25;4.93;;;;;;;5.49;81.12;98415.66;5065864;28;20071;-73
2022/02/15 02:50:58;;;;;;;9.18;5.15;;;;;;;5.49;81.28;98419.06;5065904;28;20112;-73
2022/02/15 02:53:24;;;;;;;11.18;4.40;;;;;;;5.42;81.53;98408.06;5066337;28;20025;-74
2022/02/15 02:55:49;;;;;;;9.55;5.35;;;;;;;5.42;81.91;98412.34;5066069;28;20096;-73
2022/02/15 02:58:15;;;;;;;15.60;5.53;;;;;;;5.46;81.93;98424.28;5066066;28;20114;-73
2022/02/15 03:00:40;;;;;;;11.02;4.82;;;;;;;5.39;81.27;98408.09;5066179;28;20028;-75
2022/02/15 03:03:07;;;;;;;14.57;4.85;;;;;;;5.38;81.09;98406.44;5066044;28;20061;-74
2022/02/15 03:05:36;;;;;;;16.08;6.97;;;;;;;5.45;81.13;98402.84;5065894;28;20025;-74
2022/02/15 03:08:02;;;;;;;16.75;4.80;;;;;;;5.40;81.47;98399.50;5065772;28;20044;-75
2022/02/15 03:10:28;;;;;;;18.73;6.57;;;;;;;5.46;80.86;98396.81;5065968;28;20029;-75
2022/02/15 03:12:53;;;;;;;18.95;6.55;;;;;;;5.29;82.01;98396.28;5065862;28;20028;-77
2022/02/15 03:15:19;;;;;;;20.33;7.50;;;;;;;5.20;82.10;98385.31;5065740;28;20021;-74
2022/02/15 03:17:44;;;;;;;15.68;5.97;;;;;;;5.24;82.49;98372.41;5065786;28;20048;-75
2022/02/15 03:20:10;;;;;;;9.95;4.15;;;;;;;5.18;82.69;98383.63;5066110;28;20095;-74
2022/02/15 03:22:36;;;;;;;21.27;8.75;;;;;;;5.20;82.31;98395.59;5066319;28;20400;-74
2022/02/15 03:25:02;;;;;;;18.98;8.07;;;;;;;5.13;82.56;98381.16;5047624;28;20048;-73
2022/02/15 03:27:27;;;;;;;19.75;7.32;;;;;;;5.23;82.45;98368.97;5065294;28;20037;-74
2022/02/15 03:29:52;;;;;;;20.73;9.52;;;;;;;5.13;82.99;98386.28;5064997;28;20113;-74
2022/02/15 03:32:18;;;;;;;25.85;10.13;;;;;;;5.34;81.63;98373.88;5065172;28;20523;-75
2022/02/15 03:34:44;;;;;;;17.13;7.53;;;;;;;5.04;82.60;98382.19;5065720;28;20044;-72
2022/02/15 03:37:10;;;;;;;22.95;9.00;;;;;;;5.11;82.80;98372.63;5065750;28;20025;-75
2022/02/15 03:39:36;;;;;;;20.35;9.77;;;;;;;5.20;82.59;98393.03;5065711;28;20116;-75
2022/02/15 03:44:47;;;;;;;29.33;10.63;;;;;;;5.08;83.16;98368.38;5065587;28;20027;-73
2022/02/15 03:47:12;;;;;;;18.88;8.70;;;;;;;5.08;83.33;98345.22;5065559;28;20056;-72
2022/02/15 03:49:38;;;;;;;22.15;10.85;;;;;;;5.17;83.52;98367.38;5065138;28;20244;-73
2022/02/15 03:52:04;;;;;;;18.90;8.23;;;;;;;5.18;83.40;98351.03;5065170;28;20028;-74
2022/02/15 03:54:29;;;;;;;19.95;9.23;;;;;;;5.25;83.11;98361.22;5064757;28;20083;-74
2022/02/15 03:56:54;;;;;;;26.42;12.15;;;;;;;5.18;83.37;98345.91;5046813;28;20033;-73
2022/02/15 03:59:20;;;;;;;20.73;10.15;;;;;;;5.15;83.14;98347.69;5064918;28;20028;-72
2022/02/15 04:01:46;;;;;;;25.92;9.55;;;;;;;5.15;83.53;98356.25;5065021;28;20476;-71
2022/02/15 04:04:11;;;;;;;20.45;8.10;;;;;;;5.13;83.81;98345.13;5064684;28;20017;-72
2022/02/15 04:06:36;;;;;;;23.50;10.73;;;;;;;5.18;83.95;98350.19;5064853;28;20495;-74
2022/02/15 04:09:02;;;;;;;21.50;8.77;;;;;;;5.17;83.79;98351.94;5064911;28;20025;-74
2022/02/15 04:11:28;;;;;;;20.27;10.55;;;;;;;5.10;83.89;98352.91;5064888;28;20438;-72
2022/02/15 04:13:53;;;;;;;25.85;10.18;;;;;;;5.11;83.81;98344.34;5064583;28;20032;-73
2022/02/15 04:16:19;;;;;;;26.50;10.60;;;;;;;5.08;84.13;98341.78;5064585;28;20021;-73
2022/02/15 04:18:47;;;;;;;26.92;9.93;;;;;;;5.06;84.15;98346.16;5064302;28;20032;-72
2022/02/15 04:21:14;;;;;;;19.63;8.98;;;;;;;5.06;84.17;98351.28;5064710;28;20076;-74
2022/02/15 04:23:40;;;;;;;25.50;12.02;;;;;;;5.03;84.40;98344.47;5046151;28;20049;-72
2022/02/15 04:26:05;;;;;;;20.23;7.18;;;;;;;5.07;84.67;98337.53;5046068;28;20373;-72
2022/02/15 04:28:31;;;;;;;31.63;11.45;;;;;;;5.03;84.54;98325.63;5064348;28;20025;-73
2022/02/15 04:30:56;;;;;;;27.40;12.02;;;;;;;5.02;84.25;98324.78;5064210;28;20029;-73
2022/02/15 04:33:22;;;;;;;21.77;10.60;;;;;;;5.02;84.47;98327.34;5064097;28;20032;-72
2022/02/15 04:35:47;;;;;;;27.60;11.07;;;;;;;4.86;84.66;98313.94;5063842;28;20052;-74
2022/02/15 04:38:12;;;;;;;25.52;12.35;;;;;;;4.95;84.63;98333.50;5064068;28;20027;-73
2022/02/15 04:40:38;;;;;;;21.77;9.50;;;;;;;4.89;84.73;98320.75;5045849;28;20449;-73
2022/02/15 04:43:04;;;;;;;24.10;8.13;;;;;;;4.92;84.58;98312.97;5063942;28;20048;-73
2022/02/15 04:45:29;;;;;;;28.23;9.00;;;;;;;4.84;84.82;98319.09;5063890;28;20031;-76
2022/02/15 04:47:55;;;;;;;33.22;11.98;;;;;;;4.73;84.88;98315.06;5063646;28;20024;-73
2022/02/15 04:50:20;;;;;;;33.65;11.38;;;;;;;4.84;85.42;98319.09;5045717;28;20052;-73
2022/02/15 04:52:45;;;;;;;17.15;8.68;;;;;;;4.83;85.21;98326.84;5063469;28;20056;-74
2022/02/15 04:55:11;;;;;;;18.48;7.28;;;;;;;4.70;85.37;98300.50;5063463;28;20025;-71
2022/02/15 04:57:36;;;;;;;21.95;11.02;;;;;;;4.93;85.04;98312.09;5045178;28;20028;-75
2022/02/15 05:00:03;;;;;;;23.65;11.23;;;;;;;4.84;85.53;98333.66;5062990;28;20414;-72
2022/02/15 05:02:28;;;;;;;17.13;6.03;;;;;;;4.80;85.54;98335.47;5063341;28;20084;-72
2022/02/15 05:04:55;;;;;;;22.10;8.32;;;;;;;4.73;85.85;98340.75;5063612;28;20028;-74
2022/02/15 05:07:22;;;;;;;23.30;9.40;;;;;;;4.71;86.09;98327.94;5063724;28;20059;-74
2022/02/15 05:09:48;;;;;;;18.45;9.02;;;;;;;4.73;86.39;98327.91;5063410;28;20050;-75
2022/02/15 05:12:15;;;;;;;31.02;10.95;;;;;;;4.71;86.24;98336.47;5063410;28;20484;-75
2022/02/15 05:14:41;;;;;;;23.05;8.90;;;;;;;4.52;87.17;98343.66;5045468;28;20021;-75
2022/02/15 05:17:07;;;;;;;27.75;10.63;;;;;;;4.40;87.73;98328.44;5063582;28;20098;-74
2022/02/15 05:19:33;;;;;;;22.73;11.73;;;;;;;4.36;88.21;98331.94;5063273;28;20020;-73
2022/02/15 05:22:00;;;;;;;21.50;7.35;;;;;;;4.30;88.61;98323.47;5063541;28;20040;-75
2022/02/15 05:24:25;;;;;;;28.73;10.52;;;;;;;4.28;88.97;98334.66;5063221;28;20509;-73
2022/02/15 05:26:51;;;;;;;21.73;8.88;;;;;;;4.27;89.26;98348.34;5063508;28;20036;-73
2022/02/15 05:29:16;;;;;;;17.38;8.65;;;;;;;4.11;89.68;98317.78;5045557;28;20032;-76
2022/02/15 05:31:41;;;;;;;19.23;7.97;;;;;;;4.24;89.76;98349.25;5063358;28;20020;-73
2022/02/15 05:34:07;;;;;;;16.15;7.28;;;;;;;4.18;90.08;98337.38;5062741;28;20013;-74
2022/02/15 05:36:33;;;;;;;17.42;8.65;;;;;;;4.21;90.56;98339.03;5063506;28;20140;-75
2022/02/15 05:38:59;;;;;;;24.65;8.85;;;;;;;4.17;90.93;98356.19;5045448;28;20049;-73
2022/02/15 05:41:24;;;;;;;38.42;14.32;;;;;;;4.21;90.92;98339.03;5063371;28;20025;-74
2022/02/15 05:43:50;;;;;;;18.25;5.57;;;;;;;4.18;91.41;98354.50;5063217;28;20041;-74
2022/02/15 05:46:15;;;;;;;13.02;5.50;;;;;;;4.03;91.53;98345.28;5063403;28;20033;-74
2022/02/15 05:48:40;;;;;;;25.70;8.65;;;;;;;4.14;91.50;98368.25;5045070;28;20173;-75
2022/02/15 05:51:06;;;;;;;19.52;8.45;;;;;;;4.04;nan;98362.41;5063357;28;20405;-77
2022/02/15 05:53:32;;;;;;;15.13;4.43;;;;;;;4.09;92.21;98345.19;5063397;28;20028;-79
2022/02/15 05:56:01;;;;;;;15.90;5.60;;;;;;;4.10;92.14;98375.16;5063089;28;20044;-74
2022/02/15 05:58:28;;;;;;;7.55;2.42;;;;;;;4.09;92.23;98369.16;5044971;28;20043;-73
2022/02/15 06:00:53;;;;;;;11.65;4.22;;;;;;;4.08;92.32;98388.00;5045204;28;20024;-81
2022/02/15 06:06:03;;;;;;;15.38;5.10;;;;;;;4.11;92.50;98384.53;5065589;28;20063;-73
2022/02/15 06:08:29;;;;;;;16.27;5.03;;;;;;;4.09;92.43;98396.56;5067182;28;20025;-77
2022/02/15 06:10:54;;;;;;;17.98;3.92;;;;;;;4.07;92.28;98391.44;5049060;28;20082;-73
2022/02/15 06:13:20;;;;;;;20.05;5.00;;;;;;;4.01;92.21;98381.25;5067142;28;20024;-76
2022/02/15 06:15:45;;;;;;;20.00;4.20;;;;;;;4.00;92.43;98387.28;5067078;28;20397;-76
2022/02/15 06:18:11;;;;;;;16.23;4.50;;;;;;;3.99;92.65;98397.56;5048766;28;20385;-76
2022/02/15 06:20:37;;;;;;;24.25;4.88;;;;;;;4.02;92.77;98411.22;5067019;28;20021;-77
2022/02/15 06:23:03;;;;;;;22.40;4.25;;;;;;;4.04;92.89;98409.47;5066836;28;20028;-76
2022/02/15 06:25:28;;;;;;;13.43;4.15;;;;;;;4.02;93.01;98406.09;5066690;28;20045;-77
2022/02/15 06:27:54;;;;;;;13.65;3.03;;;;;;;3.96;93.08;98407.00;5049040;28;20040;-74
2022/02/15 06:30:20;;;;;;;15.07;3.50;;;;;;;4.03;92.98;98424.88;5066478;28;20047;-73
2022/02/15 06:32:45;;;;;;;14.65;2.88;;;;;;;3.99;93.26;98428.38;5066251;28;20021;-72
2022/02/15 06:35:10;;;;;;;7.85;3.10;;;;;;;4.00;93.37;98428.34;5048842;28;20023;-75
2022/02/15 06:37:40;;;;;;;15.02;3.60;;;;;;;4.02;93.36;98429.19;5048629;28;20492;-77
2022/02/15 06:40:09;;;;;;;13.90;3.50;;;;;;;4.05;93.23;98439.44;5048374;28;20111;-77
2022/02/15 06:42:35;;;;;;;11.27;1.67;;;;;;;4.04;93.46;98450.53;5048351;28;20036;-76
2022/02/15 06:45:01;;;;;;;17.15;3.45;;;;;;;4.04;93.46;98444.59;5066689;28;20025;-76
2022/02/15 06:47:26;;;;;;;5.65;2.33;;;;;;;3.97;93.70;98447.22;5066256;28;20029;-75
2022/02/15 06:49:51;;;;;;;18.15;2.67;;;;;;;4.04;93.62;98449.72;5065963;28;20483;-75
2022/02/15 06:52:17;;;;;;;13.68;4.70;;;;;;;4.01;94.08;98447.19;5066332;28;20092;-76
2022/02/15 06:54:42;;;;;;;9.35;1.77;;;;;;;4.03;93.79;98465.97;5066200;28;20036;-74
2022/02/15 06:57:07;;;;;;;15.13;3.67;;;;;;;4.05;93.99;98466.81;5066386;28;20017;-74
2022/02/15 06:59:33;;;;;;;11.35;3.78;;;;;;;4.05;93.98;98467.66;5066170;28;20492;-72
2022/02/15 07:01:58;;;;;;;6.05;1.48;;;;;;;4.06;93.93;98471.06;5066270;28;20453;-72
2022/02/15 07:04:24;;;;;;;11.60;2.17;;;;;;;4.02;93.70;98479.69;5065711;28;20044;-72
2022/02/15 07:06:49;;;;;;;10.85;2.30;;;;;;;4.01;93.98;98478.00;5065679;28;20025;-72
2022/02/15 07:09:15;;;;;;;8.32;1.75;;;;;;;4.01;94.16;98486.53;5064886;28;20033;-72
2022/02/15 07:11:40;;;;;;;6.32;1.67;;;;;;;4.08;94.19;98495.03;5065374;28;20041;-72
2022/02/15 07:14:05;;;;;;;5.07;1.50;;;;;;;4.08;94.30;98497.59;5065056;28;20047;-72
2022/02/15 07:16:31;;;;;;;3.80;1.17;;;;;;;4.06;94.04;98502.75;5064640;28;20024;-71
2022/02/15 07:18:58;;;;;;;13.07;2.15;;;;;;;4.07;94.43;98511.31;5046635;28;20016;-71
2022/02/15 07:21:23;;;;;;;9.82;2.30;;;;;;;4.09;94.63;98509.53;5065120;28;20082;-71
2022/02/15 07:23:48;;;;;;;13.55;2.08;;;;;;;4.15;94.36;98512.06;5064838;28;20132;-71
2022/02/15 07:26:14;;;;;;;9.13;1.67;;;;;;;4.14;94.51;98518.06;5046410;28;20028;-70
2022/02/15 07:28:40;;;;;;;9.43;1.58;;;;;;;4.12;94.19;98509.50;5063994;28;20017;-72
2022/02/15 07:31:05;;;;;;;10.88;1.75;;;;;;;4.13;93.97;98520.63;5064360;28;20339;-71
2022/02/15 07:33:31;;;;;;;9.23;2.03;;;;;;;4.12;93.87;98529.22;5064859;28;20029;-71
2022/02/15 07:35:56;;;;;;;17.40;2.65;;;;;;;4.09;93.84;98540.38;5064784;28;20040;-70
2022/02/15 07:38:21;;;;;;;8.27;1.77;;;;;;;4.06;93.83;98530.13;5064931;28;20021;-71
2022/02/15 07:40:47;;;;;;;7.97;2.65;;;;;;;4.13;94.00;98548.88;5064778;28;20489;-70
2022/02/15 07:43:12;;;;;;;12.27;1.63;;;;;;;4.09;93.53;98551.50;5046877;28;20021;-71
2022/02/15 07:45:40;;;;;;;10.98;2.00;;;;;;;4.06;93.22;98555.81;5064525;28;20028;-69
2022/02/15 07:48:06;;;;;;;14.18;2.05;;;;;;;4.06;93.08;98555.81;5064137;28;20032;-72
2022/02/15 07:50:31;;;;;;;8.52;1.50;;;;;;;4.10;93.13;98560.06;5064548;28;20021;-72
2022/02/15 07:52:57;;;;;;;12.65;1.98;;;;;;;4.09;93.00;98576.31;5064375;28;20650;-71
2022/02/15 07:55:23;;;;;;;11.95;2.28;;;;;;;4.10;92.88;98570.34;5046146;28;20032;-73
2022/02/15 07:57:48;;;;;;;14.55;2.40;;;;;;;4.18;93.12;98568.53;5064295;28;20072;-73
2022/02/15 08:00:20;;;;;;;9.75;1.92;;;;;;;4.20;92.84;98579.63;5064060;28;20025;-72
2022/02/15 08:02:47;;;;;;;4.70;1.38;;;;;;;4.25;92.76;98568.47;5064169;28;20021;-70
2022/02/15 08:05:12;;;;;;;11.57;2.08;;;;;;;4.28;92.42;98588.97;5064281;28;20074;-72
2022/02/15 08:07:38;;;;;;;5.45;1.40;;;;;;;4.20;91.98;98595.03;5064634;28;20468;-72
2022/02/15 08:10:04;;;;;;;13.90;1.90;;;;;;;4.18;91.82;98596.78;5064323;28;20100;-73
2022/02/15 08:12:30;;;;;;;12.20;1.90;;;;;;;4.19;91.84;98598.47;5064413;28;20055;-73
2022/02/15 08:14:56;;;;;;;11.98;2.10;;;;;;;4.14;91.87;98599.41;5063959;28;20029;-73
2022/02/15 08:17:22;;;;;;;15.50;1.73;;;;;;;4.11;91.55;98615.69;5064465;28;20172;-73
2022/02/15 08:19:48;;;;;;;21.10;2.15;;;;;;;3.91;91.52;98578.25;5063794;28;20044;-73
2022/02/15 08:22:13;;;;;;;9.60;2.00;;;;;;;4.04;91.66;98604.63;5064035;28;20020;-74
2022/02/15 08:24:39;;;;;;;15.48;1.98;;;;;;;4.08;91.39;98610.59;5045597;28;20101;-74
2022/02/15 08:27:05;;;;;;;12.27;2.60;;;;;;;4.11;91.45;98617.41;5063073;28;20029;-74
2022/02/15 08:29:31;;;;;;;15.85;2.22;;;;;;;4.13;91.23;98624.22;5063512;28;20021;-76
2022/02/15 08:31:58;;;;;;;6.40;2.00;;;;;;;4.14;91.36;98630.22;5063901;28;20073;-74
2022/02/15 08:34:24;;;;;;;15.30;2.97;;;;;;;4.16;90.99;98631.03;5063561;28;20031;-75
2022/02/15 08:36:49;;;;;;;8.90;1.83;;;;;;;4.03;90.83;98618.34;5063954;28;20179;-75
2022/02/15 08:39:15;;;;;;;16.92;3.00;;;;;;;4.19;90.86;98633.56;5063971;28;20032;-74
2022/02/15 08:41:41;;;;;;;20.52;2.63;;;;;;;4.26;91.15;98639.50;5063960;28;20112;-75
2022/02/15 08:44:07;;;;;;;17.98;2.92;;;;;;;4.24;90.86;98646.38;5063457;28;20073;-74
2022/02/15 08:46:33;;;;;;;22.42;3.50;;;;;;;4.28;90.68;98658.34;5063702;28;20036;-75
2022/02/15 08:48:58;;;;;;;23.38;2.80;;;;;;;4.25;90.55;98646.34;5062980;28;20035;-75
2022/02/15 08:51:24;;;;;;;20.08;2.97;;;;;;;4.26;90.41;98655.78;5045174;28;20119;-73
2022/02/15 08:53:50;;;;;;;7.85;2.63;;;;;;;4.27;90.19;98654.03;5063097;28;20029;-74
2022/02/15 08:56:17;;;;;;;14.07;3.35;;;;;;;4.31;90.16;98664.25;5062935;28;20055;-74
2022/02/15 08:58:43;;;;;;;19.27;3.03;;;;;;;4.33;90.33;98670.25;5063145;28;20021;-74
2022/02/15 09:01:09;;;;;;;8.05;1.23;;;;;;;4.32;90.47;98660.00;5063378;28;20021;-76
2022/02/15 09:03:35;;;;;;;8.88;2.00;;;;;;;4.27;90.17;98670.31;5063120;28;20027;-74
2022/02/15 09:06:01;;;;;;;13.27;2.47;;;;;;;4.29;90.66;98675.44;5062876;28;20119;-73
2022/02/15 09:08:27;;;;;;;14.52;2.95;;;;;;;4.32;90.91;98683.97;5063144;28;20029;-73
2022/02/15 09:10:52;;;;;;;10.27;1.95;;;;;;;4.24;90.49;98678.06;5063206;28;20028;-73
2022/02/15 09:13:18;;;;;;;16.17;3.40;;;;;;;4.27;90.47;98670.31;5062957;28;20036;-74
2022/02/15 09:15:43;;;;;;;8.50;1.33;;;;;;;4.26;90.54;98665.19;5062729;28;20036;-71
2022/02/15 09:18:08;;;;;;;11.38;2.22;;;;;;;4.24;89.96;98683.19;5062564;28;20017;-70
2022/02/15 09:20:36;;;;;;;20.35;3.65;;;;;;;4.24;89.49;98692.59;5044750;28;20017;-70
2022/02/15 09:23:02;;;;;;;13.23;2.17;;;;;;;4.24;89.53;98700.31;5062805;28;20027;-71
2022/02/15 09:25:27;;;;;;;17.80;2.88;;;;;;;4.18;88.95;98699.53;5062295;28;20069;-70
2022/02/15 09:27:52;;;;;;;7.10;1.65;;;;;;;4.18;88.46;98706.38;5062685;28;20097;-69
2022/02/15 09:30:18;;;;;;;8.18;1.50;;;;;;;4.21;88.73;98698.63;5062640;28;20025;-70
2022/02/15 09:32:43;;;;;;;7.55;2.75;;;;;;;4.17;88.02;98710.66;5062440;28;20032;-70
2022/02/15 09:35:09;;;;;;;9.50;2.00;;;;;;;4.20;88.15;98705.47;5062227;28;20285;-71
2022/02/15 09:37:34;;;;;;;11.93;3.78;;;;;;;4.25;88.46;98722.59;5062704;28;20053;-71
2022/02/15 09:40:00;;;;;;;19.60;3.20;;;;;;;4.31;88.41;98725.94;5062960;28;20024;-71
2022/02/15 09:42:26;;;;;;;22.02;4.95;;;;;;;4.33;88.44;98719.06;5062816;28;20079;-71
2022/02/15 09:44:51;;;;;;;11.27;2.92;;;;;;;4.31;87.57;98725.94;5062474;28;20389;-71
2022/02/15 09:47:26;;;;;;;22.55;3.42;;;;;;;4.37;86.73;98730.16;5062814;28;20033;-71
2022/02/15 09:49:53;;;;;;;24.52;4.30;;;;;;;4.44;87.22;98715.53;5062379;28;20110;-70
2022/02/15 09:52:22;;;;;;;29.80;5.45;;;;;;;4.49;86.13;98712.94;5062834;28;20100;-69
2022/02/15 09:54:50;;;;;;;16.38;4.63;;;;;;;4.54;85.90;98719.69;5062322;28;20021;-69
2022/02/15 09:57:17;;;;;;;23.35;4.97;;;;;;;4.65;85.71;98729.03;5062836;28;20070;-70
2022/02/15 09:59:43;;;;;;;24.48;3.50;;;;;;;4.66;85.29;98741.88;5062623;28;20100;-72
2022/02/15 10:02:17;;;;;;;24.23;3.55;;;;;;;4.75;85.70;98747.75;5062763;28;20484;-73
2022/02/15 10:04:42;;;;;;;8.05;2.28;;;;;;;4.79;85.58;98746.88;5062259;28;20029;-73
2022/02/15 10:07:09;;;;;;;15.30;3.28;;;;;;;4.77;84.95;98744.31;5062647;28;20039;-73
2022/02/15 10:09:35;;;;;;;27.50;4.05;;;;;;;4.71;84.58;98750.34;5062743;28;20405;-72
2022/02/15 10:12:11;;;;;;;24.60;4.55;;;;;;;4.69;84.09;98759.81;5062993;28;20035;-73
2022/02/15 10:14:39;;;;;;;14.43;3.50;;;;;;;4.62;84.55;98765.88;5062353;28;20028;-72
2022/02/15 10:17:07;;;;;;;21.08;3.70;;;;;;;4.64;84.67;98771.88;5062593;28;20580;-75
2022/02/15 10:19:32;;;;;;;19.10;2.97;;;;;;;4.61;84.56;98756.47;5062077;28;20029;-73
2022/02/15 10:22:00;;;;;;;15.68;3.80;;;;;;;4.59;84.10;98771.06;5062317;28;20064;-73
2022/02/15 10:24:28;;;;;;;23.77;4.93;;;;;;;4.57;83.96;98762.50;5062053;28;20513;-72
2022/02/15 10:27:08;;;;;;;21.30;4.38;;;;;;;4.56;83.07;98778.81;5062242;28;20032;-72
2022/02/15 10:29:35;;;;;;;22.30;3.97;;;;;;;4.54;82.96;98777.97;5062218;28;20082;-72
2022/02/15 10:32:04;;;;;;;25.92;3.95;;;;;;;4.54;83.09;98778.81;5062263;28;20059;-72
2022/02/15 10:34:30;;;;;;;20.95;3.42;;;;;;;4.49;82.16;98783.13;5043591;28;20045;-71
2022/02/15 10:37:04;;;;;;;24.65;3.97;;;;;;;4.50;81.75;98787.44;5062293;28;20020;-71
2022/02/15 10:39:38;;;;;;;12.15;2.95;;;;;;;4.44;80.97;98788.34;5062287;28;20031;-71
2022/02/15 10:42:05;;;;;;;9.02;2.88;;;;;;;4.47;80.18;98795.19;5062119;28;20075;-71
2022/02/15 10:44:34;;;;;;;23.17;4.25;;;;;;;4.51;79.90;98799.41;5061857;28;20041;-71
2022/02/15 10:47:00;;;;;;;23.58;3.60;;;;;;;4.54;79.46;98798.53;5062180;28;20025;-71
2022/02/15 10:49:26;;;;;;;24.65;4.05;;;;;;;4.63;80.70;98802.72;5061768;28;20029;-70
2022/02/15 10:51:52;;;;;;;18.98;5.25;;;;;;;4.64;80.35;98800.16;5063795;28;20035;-73
2022/02/15 10:54:17;;;;;;;29.02;4.90;;;;;;;4.74;80.70;98815.47;5064825;28;20104;-69
2022/02/15 10:56:46;;;;;;;21.48;5.03;;;;;;;4.74;79.90;98806.06;5064746;28;20028;-70
2022/02/15 10:59:12;;;;;;;33.00;6.07;;;;;;;4.78;80.12;98806.84;5065424;28;20077;-71
2022/02/15 11:01:41;;;;;;;28.35;5.72;;;;;;;4.79;79.62;98819.69;5065921;28;20024;-71
2022/02/15 11:04:07;;;;;;;22.40;2.90;;;;;;;4.80;79.42;98820.56;5065986;28;20040;-70
2022/02/15 11:06:33;;;;;;;23.50;4.70;;;;;;;4.83;79.44;98823.09;5065514;28;20033;-74
2022/02/15 11:09:02;;;;;;;40.33;5.03;;;;;;;4.84;79.00;98817.94;5065640;28;20031;-72
2022/02/15 11:11:41;;;;;;;23.88;4.32;;;;;;;4.89;80.17;98825.59;5065685;28;20397;-72
2022/02/15 11:14:07;;;;;;;27.25;5.00;;;;;;;4.91;79.93;98834.16;5065588;28;20053;-73
2022/02/15 11:16:32;;;;;;;11.30;3.78;;;;;;;4.88;78.53;98823.03;5065047;28;20024;-71
2022/02/15 11:19:09;;;;;;;16.05;3.25;;;;;;;4.83;76.00;98838.50;5064839;28;20032;-70
2022/02/15 11:21:35;;;;;;;9.48;2.40;;;;;;;4.88;75.45;98834.19;5047131;28;20025;-71
2022/02/15 11:24:05;;;;;;;20.55;3.55;;;;;;;4.83;76.15;98833.38;5065065;28;20052;-70
2022/02/15 11:26:42;;;;;;;15.60;2.88;;;;;;;4.85;74.40;98844.50;5065070;28;20191;-71
2022/02/15 11:29:22;;;;;;;11.75;2.25;;;;;;;4.86;73.14;98840.22;5064407;28;20033;-71
2022/02/15 11:31:47;;;;;;;17.15;3.03;;;;;;;4.79;72.59;98845.41;5065093;28;20040;-71
2022/02/15 11:34:13;;;;;;;25.17;4.30;;;;;;;4.88;73.83;98851.31;5064615;28;20093;-70
2022/02/15 11:36:52;;;;;;;11.93;3.03;;;;;;;4.91;71.59;98848.72;5064629;28;20021;-70